Aeroporto :
LOGIN :

Iscrizione | Disclaimer

   EN    FR    IT 

 










Sommario :    VFR   VFR Marginale   IFR   IFR Intensivo   IFR Molto Intensivo
Visibilità : 
Base nubi : 
>= 8 km
>= 3000ft
5 / 8 km
1000 / 3000 ft
1500m / 5 km
500 / 1000 ft
800 / 1500m
200 / 500 ft
< 800m
< 200 ft
Simboli :   Temporali  Nebbia  Neve Forte  Precipitazioni Forti  Vento > 20 kt
SIGMETs :   Varie  Temporali  Ghiacco  Turbolenza  Onda orograficha  Ceneri Vulcaniche






- Altitudine del aeroporto : 36 ft
- Codice IATA : LTQ


LFAT - Le Touquet

ULTIMO METAR :
  • 162030Z AUTO 23004KT 200V270 9999 -RA NCD 14/11 Q1007

METARs OBSOLETI :
  • 162000Z AUTO 26004KT 230V290 9999 NCD 15/11 Q1007
  • 161930Z AUTO 26004KT 9999 NCD 15/11 Q1007
  • 161900Z AUTO 25005KT 9999 NCD 15/11 Q1007
  • 161830Z AUTO 26007KT 220V290 9999 NCD 15/11 Q1007
  • 161800Z AUTO 26007KT 220V280 9999 NCD 15/11 Q1007 TEMPO 24015G25KT 4500 SHRA SCT020 BKN025TCU
  • 161730Z AUTO 25008KT 200V280 9999 NCD 16/11 Q1006 TEMPO 24015G25KT 4500 SHRA SCT020 BKN025TCU
  • 161700Z AUTO 25010KT 220V280 9999 NCD 16/10 Q1006 TEMPO 24015G25KT 4500 SHRA SCT020 BKN025TCU
  • 161630Z AUTO 24011KT 210V290 8000 FEW017/// BKN072/// 17/11 Q1006 TEMPO 24015G25KT 4500 SHRA SCT020 BKN025TCU
  • 161600Z AUTO 25013KT 220V280 7000 FEW020/// SCT072/// 16/11 Q1006 TEMPO 24015G25KT 4500 SHRA SCT020 BKN025TCU

TAF TAF LFAT
Valido dal 16 a 15 ore il 17 a 00 ore UTC


161400Z 1615/1624 24010KT 9999 BKN030
PROB30
TEMPO 1615/1624 24015G25KT 4500 SHRA SCT020 BKN025TCU
ATIS : +33 3 21 06 62 84



MetMap, La meteo Aeronautica in un colpo d'occhio ! - Copyright ORBIFLY Dicembre 2007 - Disclaimer

ORBIFLY MET'MAP TEAM :

Programmazione e sviluppo : Alexandra Zaïnal
Concezione : Baudouin d'Aumeries
Supporto tecnico e logistico : Manuel Goepfert
Aiuto : Marc-Olivier Méhu
Aiuto per la traduzione : Arnaldo La Scala




FONTI E CREDITI :

   NOAA